Time;durP1;ratioP1;P1;durP2;ratioP2;P2;SDS_P1;SDS_P2;PMS_P1;PMS_P2;Temp;Humidity;BMP_temperature;BMP_pressure;BME280_temperature;BME280_humidity;BME280_pressure;Samples;Min_cycle;Max_cycle;Signal;HPM_P1;HPM_P2
2021/10/12 00:02:06;;;;;;;8.17;1.90;;;;;;;;;;5001839;28;20236;-77
2021/10/12 00:04:31;;;;;;;7.67;1.50;;;;;;;;;;5000831;28;20216;-77
2021/10/12 00:06:56;;;;;;;6.43;1.23;;;;;;;;;;4994724;28;20287;-77
2021/10/12 00:09:21;;;;;;;6.90;1.70;;;;;;;;;;5002027;28;20192;-77
2021/10/12 00:11:47;;;;;;;7.30;1.77;;;;;;;;;;5005930;28;20188;-76
2021/10/12 00:14:12;;;;;;;5.70;1.20;;;;;;;;;;5004483;28;20755;-78
2021/10/12 00:16:37;;;;;;;11.83;1.80;;;;;;;;;;5005784;28;20223;-77
2021/10/12 00:19:03;;;;;;;6.00;1.60;;;;;;;;;;5001819;28;20581;-77
2021/10/12 00:21:28;;;;;;;7.03;1.63;;;;;;;;;;5003174;28;20188;-77
2021/10/12 00:23:54;;;;;;;6.50;1.97;;;;;;;;;;5004769;28;20502;-77
2021/10/12 00:26:20;;;;;;;7.77;1.90;;;;;;;;;;5006057;28;20188;-77
2021/10/12 00:28:46;;;;;;;9.03;1.67;;;;;;;;;;5005392;28;20182;-77
2021/10/12 00:31:11;;;;;;;5.03;1.97;;;;;;;;;;5005209;28;20514;-78
2021/10/12 00:33:38;;;;;;;4.60;1.57;;;;;;;;;;5003740;28;20209;-77
2021/10/12 00:36:04;;;;;;;7.03;1.67;;;;;;;;;;5001834;28;20217;-77
2021/10/12 00:38:29;;;;;;;8.47;1.30;;;;;;;;;;5004208;28;21135;-78
2021/10/12 00:40:54;;;;;;;9.07;2.00;;;;;;;;;;5005159;28;20169;-78
2021/10/12 00:43:25;;;;;;;5.17;1.60;;;;;;;;;;5002700;28;20193;-78
2021/10/12 00:45:51;;;;;;;5.87;1.67;;;;;;;;;;5004236;28;20193;-78
2021/10/12 00:48:17;;;;;;;10.20;2.00;;;;;;;;;;5003490;28;20426;-78
2021/10/12 00:50:42;;;;;;;7.70;1.37;;;;;;;;;;5007264;28;20461;-78
2021/10/12 00:53:07;;;;;;;6.37;1.23;;;;;;;;;;5003379;28;20724;-78
2021/10/12 00:55:32;;;;;;;4.53;1.20;;;;;;;;;;5003048;28;20235;-78
2021/10/12 00:57:58;;;;;;;5.63;1.50;;;;;;;;;;5005522;28;20201;-79
2021/10/12 01:00:23;;;;;;;4.00;1.50;;;;;;;;;;5004292;28;20623;-78
2021/10/12 01:02:49;;;;;;;8.77;1.90;;;;;;;;;;5004443;28;20720;-77
2021/10/12 01:05:14;;;;;;;6.40;1.50;;;;;;;;;;5003260;28;20181;-77
2021/10/12 01:07:39;;;;;;;9.00;1.97;;;;;;;;;;5002729;28;21465;-78
2021/10/12 01:10:05;;;;;;;10.07;1.77;;;;;;;;;;5000921;28;20178;-78
2021/10/12 01:12:30;;;;;;;8.07;1.60;;;;;;;;;;5002949;28;20236;-78
2021/10/12 01:14:56;;;;;;;6.40;1.53;;;;;;;;;;5001419;28;20453;-79
2021/10/12 01:17:21;;;;;;;6.90;1.60;;;;;;;;;;5001441;28;20185;-78
2021/10/12 01:19:46;;;;;;;4.80;1.63;;;;;;;;;;4999938;28;20234;-78
2021/10/12 01:22:12;;;;;;;8.00;1.50;;;;;;;;;;5002920;28;23063;-77
2021/10/12 01:24:37;;;;;;;7.27;1.50;;;;;;;;;;5001756;28;20664;-78
2021/10/12 01:27:02;;;;;;;2.97;1.40;;;;;;;;;;5002564;28;20181;-78
2021/10/12 01:29:27;;;;;;;8.20;1.50;;;;;;;;;;5002081;28;20234;-78
2021/10/12 01:31:53;;;;;;;7.73;1.47;;;;;;;;;;5003502;28;20201;-78
2021/10/12 01:34:20;;;;;;;6.80;1.53;;;;;;;;;;5003301;28;20696;-78
2021/10/12 01:36:45;;;;;;;7.63;1.40;;;;;;;;;;5001891;28;20177;-78
2021/10/12 01:39:12;;;;;;;6.10;1.37;;;;;;;;;;5002566;28;20439;-78
2021/10/12 01:41:37;;;;;;;7.87;1.20;;;;;;;;;;5003017;28;20182;-78
2021/10/12 01:44:02;;;;;;;4.33;1.50;;;;;;;;;;5000005;28;20547;-78
2021/10/12 01:46:27;;;;;;;7.40;1.40;;;;;;;;;;5000615;28;20205;-78
2021/10/12 01:48:53;;;;;;;2.80;1.20;;;;;;;;;;5000930;28;20254;-78
2021/10/12 01:51:19;;;;;;;8.03;1.60;;;;;;;;;;5002971;28;20186;-78
2021/10/12 01:53:44;;;;;;;4.37;1.37;;;;;;;;;;5002857;28;20917;-78
2021/10/12 01:56:09;;;;;;;6.80;1.17;;;;;;;;;;5003329;28;20760;-78
2021/10/12 01:58:35;;;;;;;7.80;1.50;;;;;;;;;;5003578;28;20689;-77
2021/10/12 02:01:00;;;;;;;6.33;1.63;;;;;;;;;;5001086;28;20184;-77
2021/10/12 02:03:25;;;;;;;7.83;1.73;;;;;;;;;;5004035;28;20247;-78
2021/10/12 02:05:50;;;;;;;4.73;1.47;;;;;;;;;;5002963;28;20219;-77
2021/10/12 02:08:16;;;;;;;5.50;1.33;;;;;;;;;;5002511;28;20181;-79
2021/10/12 02:10:41;;;;;;;4.10;1.47;;;;;;;;;;5003981;28;20181;-78
2021/10/12 02:13:06;;;;;;;6.53;1.57;;;;;;;;;;5001038;28;20251;-78
2021/10/12 02:15:32;;;;;;;5.63;1.73;;;;;;;;;;5000180;28;20542;-78
2021/10/12 02:17:57;;;;;;;7.10;1.43;;;;;;;;;;5001194;28;20209;-79
2021/10/12 02:20:22;;;;;;;5.70;1.43;;;;;;;;;;5000536;28;20169;-79
2021/10/12 02:22:47;;;;;;;8.20;1.80;;;;;;;;;;4999634;28;20284;-79
2021/10/12 02:25:13;;;;;;;5.83;1.87;;;;;;;;;;5001180;28;20184;-78
2021/10/12 02:27:38;;;;;;;9.00;1.60;;;;;;;;;;5002709;28;20183;-79
2021/10/12 02:30:04;;;;;;;10.93;2.30;;;;;;;;;;5003976;28;20177;-79
2021/10/12 02:32:30;;;;;;;11.57;2.10;;;;;;;;;;5004966;28;20219;-78
2021/10/12 02:34:55;;;;;;;10.20;2.10;;;;;;;;;;5002112;28;20834;-79
2021/10/12 02:37:20;;;;;;;9.17;2.07;;;;;;;;;;5005397;28;20237;-79
2021/10/12 02:39:45;;;;;;;11.17;2.20;;;;;;;;;;5001746;28;20189;-79
2021/10/12 02:42:11;;;;;;;12.73;1.70;;;;;;;;;;5002337;28;20552;-78
2021/10/12 02:44:36;;;;;;;7.00;1.93;;;;;;;;;;5000922;28;20295;-79
2021/10/12 02:47:01;;;;;;;11.20;2.30;;;;;;;;;;5002874;28;20245;-79
2021/10/12 02:49:27;;;;;;;8.63;2.20;;;;;;;;;;5004887;28;20200;-79
2021/10/12 02:51:52;;;;;;;6.40;1.47;;;;;;;;;;5002093;28;20228;-79
2021/10/12 02:54:17;;;;;;;12.10;2.20;;;;;;;;;;5001497;28;20252;-79
2021/10/12 02:56:42;;;;;;;8.07;2.10;;;;;;;;;;5001775;28;20217;-79
2021/10/12 02:59:08;;;;;;;9.00;2.57;;;;;;;;;;5002152;28;20177;-79
2021/10/12 03:01:33;;;;;;;12.73;2.30;;;;;;;;;;4999746;28;20212;-78
2021/10/12 03:03:58;;;;;;;8.23;1.80;;;;;;;;;;5002147;28;20659;-78
2021/10/12 03:06:24;;;;;;;9.30;1.77;;;;;;;;;;5005752;28;20209;-79
2021/10/12 03:08:49;;;;;;;8.23;1.57;;;;;;;;;;5008666;28;20608;-78
2021/10/12 03:11:15;;;;;;;6.97;1.60;;;;;;;;;;5005867;28;20184;-78
2021/10/12 03:13:40;;;;;;;6.77;1.00;;;;;;;;;;5009189;28;20193;-79
2021/10/12 03:16:07;;;;;;;15.40;1.60;;;;;;;;;;5004103;28;20208;-78
2021/10/12 03:18:33;;;;;;;7.13;1.53;;;;;;;;;;5003253;28;20174;-78
2021/10/12 03:20:58;;;;;;;12.07;2.03;;;;;;;;;;5003890;28;20804;-78
2021/10/12 03:23:23;;;;;;;10.00;1.73;;;;;;;;;;5001269;28;20564;-78
2021/10/12 03:25:49;;;;;;;5.37;1.60;;;;;;;;;;5001017;28;20225;-78
2021/10/12 03:28:14;;;;;;;7.87;1.23;;;;;;;;;;5001945;28;20645;-78
2021/10/12 03:30:39;;;;;;;4.13;0.90;;;;;;;;;;5000264;28;20224;-78
2021/10/12 03:33:05;;;;;;;9.07;1.30;;;;;;;;;;5004040;28;20216;-78
2021/10/12 03:35:33;;;;;;;6.17;1.30;;;;;;;;;;5004246;28;20181;-78
2021/10/12 03:37:58;;;;;;;6.33;1.23;;;;;;;;;;5009131;28;20173;-78
2021/10/12 03:40:24;;;;;;;5.20;1.37;;;;;;;;;;5007275;28;20772;-78
2021/10/12 03:42:49;;;;;;;5.13;1.10;;;;;;;;;;5005241;28;20197;-78
2021/10/12 03:45:14;;;;;;;7.43;1.70;;;;;;;;;;5001829;28;20188;-78
2021/10/12 03:47:39;;;;;;;10.90;2.73;;;;;;;;;;5003879;28;20264;-80
2021/10/12 03:50:05;;;;;;;6.33;1.50;;;;;;;;;;5003010;28;20558;-78
2021/10/12 03:52:30;;;;;;;4.23;1.17;;;;;;;;;;5005466;28;20217;-79
2021/10/12 03:54:55;;;;;;;8.37;1.47;;;;;;;;;;5005804;28;20192;-79
2021/10/12 03:57:21;;;;;;;7.17;1.40;;;;;;;;;;5012299;28;20220;-80
2021/10/12 03:59:46;;;;;;;3.90;1.37;;;;;;;;;;5008630;28;20185;-80
2021/10/12 04:02:11;;;;;;;5.40;1.10;;;;;;;;;;5012588;28;20205;-79
2021/10/12 04:04:36;;;;;;;3.00;0.90;;;;;;;;;;5007850;28;20300;-80
2021/10/12 04:07:02;;;;;;;5.13;1.73;;;;;;;;;;5010054;28;20227;-80
2021/10/12 04:09:27;;;;;;;2.50;1.00;;;;;;;;;;5009781;28;20196;-80
2021/10/12 04:11:52;;;;;;;5.47;1.80;;;;;;;;;;5009497;28;20178;-80
2021/10/12 04:14:17;;;;;;;4.40;1.00;;;;;;;;;;5007486;28;20336;-80
2021/10/12 04:16:42;;;;;;;2.30;0.90;;;;;;;;;;5008353;28;20170;-79
2021/10/12 04:19:08;;;;;;;2.10;0.80;;;;;;;;;;5008784;28;20187;-81
2021/10/12 04:21:33;;;;;;;4.27;0.83;;;;;;;;;;5007839;28;20169;-82
2021/10/12 04:23:59;;;;;;;5.80;1.20;;;;;;;;;;5004691;28;20201;-80
2021/10/12 04:26:25;;;;;;;6.97;1.40;;;;;;;;;;5006615;28;20177;-80
2021/10/12 04:28:50;;;;;;;3.93;1.13;;;;;;;;;;5006314;28;20189;-79
2021/10/12 04:31:15;;;;;;;5.17;1.30;;;;;;;;;;5008718;28;20479;-80
2021/10/12 04:33:41;;;;;;;2.70;0.77;;;;;;;;;;5009325;28;20240;-80
2021/10/12 04:36:06;;;;;;;7.57;1.47;;;;;;;;;;5008257;28;20220;-80
2021/10/12 04:38:31;;;;;;;5.10;1.40;;;;;;;;;;5006672;28;20184;-79
2021/10/12 04:40:56;;;;;;;4.10;1.10;;;;;;;;;;5007756;28;20177;-80
2021/10/12 04:43:22;;;;;;;5.40;0.80;;;;;;;;;;5011165;28;20223;-80
2021/10/12 04:45:47;;;;;;;3.10;0.77;;;;;;;;;;5009023;28;20211;-80
2021/10/12 04:48:14;;;;;;;6.70;1.07;;;;;;;;;;5011971;28;20288;-80
2021/10/12 04:50:39;;;;;;;3.07;0.97;;;;;;;;;;5003054;28;20265;-79
2021/10/12 04:53:04;;;;;;;4.60;1.23;;;;;;;;;;5004270;28;20570;-79
2021/10/12 04:55:30;;;;;;;3.77;0.80;;;;;;;;;;5005214;28;20212;-80
2021/10/12 04:57:56;;;;;;;4.20;1.10;;;;;;;;;;5005525;28;20249;-80
2021/10/12 05:00:21;;;;;;;2.40;0.90;;;;;;;;;;5002355;28;20181;-80
2021/10/12 05:02:46;;;;;;;4.20;1.07;;;;;;;;;;4999677;28;20362;-80
2021/10/12 05:05:11;;;;;;;3.70;0.80;;;;;;;;;;5002386;28;20239;-79
2021/10/12 05:07:37;;;;;;;2.03;0.80;;;;;;;;;;5005414;28;20184;-80
2021/10/12 05:10:06;;;;;;;4.23;1.10;;;;;;;;;;5004292;28;20628;-80
2021/10/12 05:12:31;;;;;;;4.33;1.43;;;;;;;;;;5002121;28;20436;-80
2021/10/12 05:14:56;;;;;;;2.60;1.00;;;;;;;;;;5003674;28;20433;-80
2021/10/12 05:17:35;;;;;;;6.87;0.97;;;;;;;;;;5004320;28;20203;-80
2021/10/12 05:20:00;;;;;;;9.30;1.40;;;;;;;;;;5007081;28;20166;-79
2021/10/12 05:22:25;;;;;;;5.97;1.20;;;;;;;;;;5005771;28;20505;-81
2021/10/12 05:24:50;;;;;;;4.13;1.17;;;;;;;;;;5008957;28;20256;-80
2021/10/12 05:27:16;;;;;;;3.90;1.43;;;;;;;;;;5010028;28;20185;-81
2021/10/12 05:29:41;;;;;;;7.10;1.60;;;;;;;;;;5007911;28;20207;-80
2021/10/12 05:32:08;;;;;;;5.97;1.73;;;;;;;;;;5009690;28;20185;-80
2021/10/12 05:34:33;;;;;;;7.23;1.43;;;;;;;;;;5005539;28;20242;-80
2021/10/12 05:36:58;;;;;;;5.50;1.40;;;;;;;;;;5012115;28;20420;-81
2021/10/12 05:39:24;;;;;;;7.83;1.87;;;;;;;;;;5009637;28;20173;-80
2021/10/12 05:41:49;;;;;;;4.47;1.50;;;;;;;;;;5005223;28;20268;-80
2021/10/12 05:44:14;;;;;;;5.70;1.33;;;;;;;;;;5006883;28;20202;-80
2021/10/12 05:46:40;;;;;;;10.70;1.63;;;;;;;;;;5007209;28;20733;-80
2021/10/12 05:49:06;;;;;;;5.20;1.37;;;;;;;;;;5007964;28;20904;-80
2021/10/12 05:51:31;;;;;;;8.50;2.03;;;;;;;;;;5009486;28;20440;-80
2021/10/12 05:53:58;;;;;;;7.70;2.00;;;;;;;;;;5008206;28;20197;-80
2021/10/12 05:56:40;;;;;;;9.00;1.70;;;;;;;;;;5008457;28;20204;-81
2021/10/12 05:59:05;;;;;;;5.77;1.70;;;;;;;;;;5007190;28;20427;-80
2021/10/12 06:01:30;;;;;;;5.10;1.30;;;;;;;;;;5004572;28;20475;-80
2021/10/12 06:03:55;;;;;;;5.87;1.40;;;;;;;;;;5008071;28;20209;-80
2021/10/12 06:06:21;;;;;;;6.87;1.83;;;;;;;;;;5009852;28;20555;-80
2021/10/12 06:08:46;;;;;;;11.43;1.97;;;;;;;;;;5006759;28;20177;-81
2021/10/12 06:11:11;;;;;;;7.67;1.33;;;;;;;;;;5007226;28;20177;-80
2021/10/12 06:13:37;;;;;;;8.20;1.50;;;;;;;;;;5007803;28;20197;-79
2021/10/12 06:16:03;;;;;;;3.60;1.20;;;;;;;;;;4996540;28;20546;-78
2021/10/12 06:18:28;;;;;;;11.80;1.97;;;;;;;;;;4997949;28;20428;-79
2021/10/12 06:20:54;;;;;;;8.60;1.60;;;;;;;;;;5003614;28;20193;-79
2021/10/12 06:23:20;;;;;;;5.73;1.20;;;;;;;;;;5003504;28;20194;-79
2021/10/12 06:25:46;;;;;;;9.43;1.57;;;;;;;;;;5005707;28;20181;-79
2021/10/12 06:28:13;;;;;;;8.80;1.50;;;;;;;;;;5005587;28;20420;-78
2021/10/12 06:30:39;;;;;;;7.90;1.43;;;;;;;;;;5004403;28;20654;-78
2021/10/12 06:33:04;;;;;;;4.60;1.70;;;;;;;;;;5002063;28;20525;-78
2021/10/12 06:35:30;;;;;;;6.53;1.67;;;;;;;;;;5003547;28;20586;-79
2021/10/12 06:37:56;;;;;;;8.43;1.70;;;;;;;;;;5002337;28;20737;-79
2021/10/12 06:40:22;;;;;;;7.00;1.80;;;;;;;;;;5002178;28;20443;-80
2021/10/12 06:42:49;;;;;;;13.77;2.40;;;;;;;;;;5004540;28;20440;-80
2021/10/12 06:45:16;;;;;;;5.50;1.30;;;;;;;;;;5005587;28;20173;-80
2021/10/12 06:47:42;;;;;;;5.60;1.37;;;;;;;;;;5005445;28;20429;-80
2021/10/12 06:50:07;;;;;;;6.17;1.43;;;;;;;;;;5007083;28;20428;-80
2021/10/12 06:52:32;;;;;;;8.30;1.50;;;;;;;;;;5000939;28;20684;-79
2021/10/12 06:54:57;;;;;;;5.43;1.53;;;;;;;;;;5001590;28;20239;-80
2021/10/12 06:57:23;;;;;;;4.10;1.30;;;;;;;;;;5002985;28;20170;-80
2021/10/12 06:59:48;;;;;;;4.77;1.53;;;;;;;;;;5001939;28;20636;-80
2021/10/12 07:02:13;;;;;;;5.90;1.67;;;;;;;;;;5003263;28;20203;-79
2021/10/12 07:04:39;;;;;;;7.20;1.43;;;;;;;;;;4995912;28;20300;-80
2021/10/12 07:07:04;;;;;;;6.00;1.40;;;;;;;;;;5005160;28;20203;-80
2021/10/12 07:09:29;;;;;;;9.60;1.80;;;;;;;;;;5019572;28;20216;-80
2021/10/12 07:11:55;;;;;;;7.20;1.60;;;;;;;;;;5006099;28;20193;-79
2021/10/12 07:14:20;;;;;;;6.17;1.67;;;;;;;;;;5006258;28;20201;-80
2021/10/12 07:16:45;;;;;;;5.30;1.30;;;;;;;;;;5006307;28;20169;-80
2021/10/12 07:19:10;;;;;;;5.90;1.73;;;;;;;;;;5004000;28;20244;-80
2021/10/12 07:21:36;;;;;;;5.40;1.30;;;;;;;;;;5005156;28;20170;-80
2021/10/12 07:24:01;;;;;;;3.33;1.17;;;;;;;;;;5005602;28;20198;-80
2021/10/12 07:26:26;;;;;;;7.20;1.87;;;;;;;;;;5006680;28;20529;-80
2021/10/12 07:28:53;;;;;;;5.20;1.50;;;;;;;;;;5006173;28;20685;-80
2021/10/12 07:31:19;;;;;;;5.83;1.20;;;;;;;;;;5005071;28;20217;-80
2021/10/12 07:33:44;;;;;;;4.53;1.30;;;;;;;;;;5002788;28;21054;-80
2021/10/12 07:36:09;;;;;;;8.40;2.10;;;;;;;;;;5003228;28;20176;-79
2021/10/12 07:38:34;;;;;;;4.70;1.30;;;;;;;;;;4990536;28;20173;-79
2021/10/12 07:41:00;;;;;;;6.77;1.60;;;;;;;;;;5001532;28;20228;-80
2021/10/12 07:43:25;;;;;;;4.30;1.10;;;;;;;;;;5000044;28;20252;-80
2021/10/12 07:45:50;;;;;;;3.87;0.90;;;;;;;;;;4999638;28;20216;-80
2021/10/12 07:48:19;;;;;;;5.97;1.33;;;;;;;;;;4999649;28;20666;-80
2021/10/12 07:50:44;;;;;;;9.10;1.50;;;;;;;;;;5002431;28;20182;-80
2021/10/12 07:53:10;;;;;;;4.00;1.20;;;;;;;;;;5002289;28;20524;-79
2021/10/12 07:58:02;;;;;;;3.80;1.20;;;;;;;;;;5009223;28;20178;-80
2021/10/12 08:00:28;;;;;;;4.57;1.20;;;;;;;;;;5009645;28;20257;-80
2021/10/12 08:02:53;;;;;;;3.83;1.37;;;;;;;;;;5010785;28;20459;-80
2021/10/12 08:05:19;;;;;;;4.70;1.30;;;;;;;;;;5009561;28;21599;-80
2021/10/12 08:07:45;;;;;;;9.27;1.73;;;;;;;;;;5009630;28;20181;-79
2021/10/12 08:10:11;;;;;;;4.60;1.20;;;;;;;;;;5000604;28;20188;-79
2021/10/12 08:12:37;;;;;;;5.30;1.30;;;;;;;;;;5003757;28;20185;-79
2021/10/12 08:15:03;;;;;;;3.87;0.90;;;;;;;;;;5005580;28;20433;-79
2021/10/12 08:17:28;;;;;;;2.03;1.10;;;;;;;;;;5005906;28;21874;-79
2021/10/12 08:19:53;;;;;;;4.03;1.10;;;;;;;;;;5009125;28;20546;-79
2021/10/12 08:22:19;;;;;;;6.27;1.47;;;;;;;;;;5007608;28;20243;-79
2021/10/12 08:24:44;;;;;;;4.33;1.10;;;;;;;;;;5004044;28;20235;-79
2021/10/12 08:27:09;;;;;;;3.10;1.23;;;;;;;;;;5004953;28;20192;-79
2021/10/12 08:29:34;;;;;;;3.43;1.43;;;;;;;;;;5004415;28;20273;-79
2021/10/12 08:31:59;;;;;;;3.63;1.00;;;;;;;;;;5000953;28;20280;-79
2021/10/12 08:34:25;;;;;;;6.13;1.30;;;;;;;;;;5007157;28;20749;-79
2021/10/12 08:36:50;;;;;;;2.83;1.03;;;;;;;;;;5003099;28;20260;-79
2021/10/12 08:39:15;;;;;;;2.40;0.80;;;;;;;;;;5006943;28;20187;-79
2021/10/12 08:41:43;;;;;;;1.43;1.17;;;;;;;;;;5004040;28;20181;-79
2021/10/12 08:44:09;;;;;;;8.53;1.50;;;;;;;;;;5000057;28;20224;-79
2021/10/12 08:46:35;;;;;;;3.13;0.93;;;;;;;;;;5000171;28;21537;-79
2021/10/12 08:49:00;;;;;;;4.40;1.27;;;;;;;;;;5002242;28;20182;-79
2021/10/12 08:51:26;;;;;;;4.73;1.13;;;;;;;;;;5002368;28;20216;-79
2021/10/12 08:53:51;;;;;;;5.20;1.33;;;;;;;;;;5002410;28;20205;-79
2021/10/12 08:56:17;;;;;;;3.87;1.43;;;;;;;;;;5003780;28;20634;-79
2021/10/12 08:58:42;;;;;;;5.67;0.93;;;;;;;;;;5003599;28;21576;-79
2021/10/12 09:01:09;;;;;;;7.20;1.37;;;;;;;;;;4999815;28;20231;-79
2021/10/12 09:04:07;;;;;;;2.33;0.90;;;;;;;;;;5006381;28;20315;-78
2021/10/12 09:06:34;;;;;;;6.43;1.33;;;;;;;;;;5005773;28;20408;-79
2021/10/12 09:09:07;;;;;;;2.10;1.00;;;;;;;;;;5006841;28;20435;-79
2021/10/12 09:11:34;;;;;;;5.80;1.00;;;;;;;;;;4999195;28;20535;-78
2021/10/12 09:14:11;;;;;;;2.63;1.00;;;;;;;;;;5005113;28;20474;-79
2021/10/12 09:16:40;;;;;;;3.10;1.00;;;;;;;;;;5004402;28;20912;-79
2021/10/12 09:19:06;;;;;;;2.63;0.90;;;;;;;;;;5005577;28;20491;-79
2021/10/12 09:21:43;;;;;;;2.53;0.90;;;;;;;;;;5005545;28;20430;-79
2021/10/12 09:24:11;;;;;;;7.90;1.00;;;;;;;;;;5003041;28;20471;-79
2021/10/12 09:26:38;;;;;;;2.87;0.93;;;;;;;;;;5001800;28;20425;-79
2021/10/12 09:29:18;;;;;;;1.70;1.00;;;;;;;;;;4991619;28;20519;-79
2021/10/12 09:31:46;;;;;;;4.10;0.97;;;;;;;;;;5002556;28;20511;-79
2021/10/12 09:34:13;;;;;;;3.10;1.23;;;;;;;;;;5001017;28;20467;-81
2021/10/12 09:36:40;;;;;;;2.10;0.70;;;;;;;;;;5002563;28;20476;-79
2021/10/12 09:39:06;;;;;;;2.33;0.77;;;;;;;;;;5003115;28;20518;-79
2021/10/12 09:41:31;;;;;;;2.73;0.77;;;;;;;;;;5006663;28;20451;-79
2021/10/12 09:44:09;;;;;;;3.27;1.10;;;;;;;;;;5006674;28;20451;-79
2021/10/12 09:46:34;;;;;;;3.63;1.13;;;;;;;;;;5003924;28;20232;-79
2021/10/12 09:49:10;;;;;;;2.30;1.00;;;;;;;;;;5002304;28;20844;-79
2021/10/12 09:51:36;;;;;;;2.97;1.10;;;;;;;;;;5005868;28;20425;-79
2021/10/12 09:54:01;;;;;;;3.20;0.93;;;;;;;;;;5006697;28;20460;-78
2021/10/12 09:56:26;;;;;;;3.50;1.20;;;;;;;;;;5008833;28;20182;-79
2021/10/12 09:58:52;;;;;;;5.50;1.23;;;;;;;;;;5004662;28;20184;-79
2021/10/12 10:01:17;;;;;;;3.60;1.40;;;;;;;;;;4998491;28;20240;-78
2021/10/12 10:03:43;;;;;;;4.00;1.03;;;;;;;;;;4998506;28;20604;-78
2021/10/12 10:06:14;;;;;;;3.57;1.07;;;;;;;;;;5001514;28;20267;-79
2021/10/12 10:08:43;;;;;;;3.67;0.90;;;;;;;;;;5002221;28;20188;-79
2021/10/12 10:11:08;;;;;;;4.33;1.50;;;;;;;;;;5002625;28;20417;-79
2021/10/12 10:13:34;;;;;;;3.67;1.30;;;;;;;;;;5002489;28;20474;-79
2021/10/12 10:16:00;;;;;;;5.97;1.77;;;;;;;;;;5002891;28;20271;-78
2021/10/12 10:18:26;;;;;;;8.70;1.30;;;;;;;;;;5003760;28;20188;-79
2021/10/12 10:20:53;;;;;;;3.80;1.30;;;;;;;;;;5005563;28;20496;-78
2021/10/12 10:23:55;;;;;;;4.00;1.50;;;;;;;;;;5004180;28;20205;-78
2021/10/12 10:26:24;;;;;;;5.30;1.30;;;;;;;;;;5003566;28;20448;-79
2021/10/12 10:28:51;;;;;;;7.43;1.20;;;;;;;;;;5005854;28;20921;-79
2021/10/12 10:31:17;;;;;;;2.83;0.97;;;;;;;;;;5009379;28;20995;-80
2021/10/12 10:33:42;;;;;;;1.90;1.30;;;;;;;;;;5004960;28;20549;-80
2021/10/12 10:36:10;;;;;;;6.10;1.40;;;;;;;;;;5005328;28;20237;-80
2021/10/12 10:38:43;;;;;;;3.47;1.10;;;;;;;;;;5006620;28;20436;-80
2021/10/12 10:41:10;;;;;;;3.93;1.00;;;;;;;;;;5006904;28;20764;-79
2021/10/12 10:43:47;;;;;;;3.60;1.20;;;;;;;;;;5009000;28;20442;-79
2021/10/12 10:46:36;;;;;;;2.73;1.47;;;;;;;;;;5007163;28;20482;-79
2021/10/12 10:49:13;;;;;;;3.17;0.90;;;;;;;;;;5003932;28;20424;-79
2021/10/12 10:51:50;;;;;;;2.70;0.93;;;;;;;;;;5007344;28;20910;-79
2021/10/12 10:54:34;;;;;;;4.63;1.20;;;;;;;;;;5006244;28;20471;-77
2021/10/12 10:57:18;;;;;;;5.10;1.43;;;;;;;;;;5005679;28;20485;-77
2021/10/12 10:59:44;;;;;;;5.87;1.43;;;;;;;;;;5002649;28;20473;-77
2021/10/12 11:02:31;;;;;;;4.90;1.30;;;;;;;;;;5003446;28;20804;-77
2021/10/12 11:04:56;;;;;;;2.50;1.40;;;;;;;;;;5004843;28;20605;-76
2021/10/12 11:07:23;;;;;;;6.87;1.40;;;;;;;;;;5005002;28;20408;-76
2021/10/12 11:09:48;;;;;;;3.33;1.30;;;;;;;;;;5005503;28;20606;-76
2021/10/12 11:12:23;;;;;;;3.47;1.00;;;;;;;;;;5001662;28;20460;-76
2021/10/12 11:14:50;;;;;;;8.73;1.30;;;;;;;;;;4997845;28;20211;-77
2021/10/12 11:17:15;;;;;;;3.97;1.30;;;;;;;;;;4991988;28;20511;-76
2021/10/12 11:19:53;;;;;;;7.03;2.07;;;;;;;;;;5002636;28;20543;-76
2021/10/12 11:22:18;;;;;;;3.87;1.50;;;;;;;;;;5000332;28;20227;-77
2021/10/12 11:24:44;;;;;;;8.70;1.77;;;;;;;;;;5000684;28;20439;-76
2021/10/12 11:27:09;;;;;;;3.00;1.30;;;;;;;;;;5001900;28;20173;-76
2021/10/12 11:29:34;;;;;;;3.63;1.27;;;;;;;;;;5006137;28;20190;-76
2021/10/12 11:32:03;;;;;;;6.23;1.20;;;;;;;;;;5006116;28;20178;-76
2021/10/12 11:34:30;;;;;;;10.27;2.00;;;;;;;;;;5006127;28;20235;-76
2021/10/12 11:37:05;;;;;;;10.40;1.47;;;;;;;;;;4997657;28;20430;-76
2021/10/12 11:39:30;;;;;;;2.90;1.33;;;;;;;;;;5001729;28;20436;-76
2021/10/12 11:42:00;;;;;;;5.70;1.03;;;;;;;;;;5003322;28;21693;-76
2021/10/12 11:44:25;;;;;;;3.40;1.20;;;;;;;;;;4999143;28;20185;-76
2021/10/12 11:46:51;;;;;;;4.07;1.47;;;;;;;;;;5001784;28;20801;-76
2021/10/12 11:49:20;;;;;;;2.80;1.17;;;;;;;;;;5000002;28;20220;-77
2021/10/12 11:51:47;;;;;;;3.37;1.17;;;;;;;;;;5001925;28;20440;-76
2021/10/12 11:54:12;;;;;;;8.73;2.20;;;;;;;;;;5007313;28;20499;-77
2021/10/12 11:56:38;;;;;;;4.23;1.20;;;;;;;;;;5006408;28;20983;-76
2021/10/12 11:59:05;;;;;;;2.87;0.93;;;;;;;;;;5006042;28;20265;-76
2021/10/12 12:01:34;;;;;;;4.70;1.17;;;;;;;;;;5000342;28;20424;-75
2021/10/12 12:03:59;;;;;;;5.90;1.13;;;;;;;;;;5003156;28;20482;-76
2021/10/12 12:06:28;;;;;;;4.07;1.20;;;;;;;;;;5006999;28;20432;-76
2021/10/12 12:08:54;;;;;;;4.13;0.87;;;;;;;;;;5004225;28;20280;-76
2021/10/12 12:11:27;;;;;;;3.30;0.93;;;;;;;;;;5003941;28;20583;-76
2021/10/12 12:13:54;;;;;;;1.60;1.00;;;;;;;;;;4999247;28;20507;-76
2021/10/12 12:16:19;;;;;;;3.23;1.20;;;;;;;;;;5003804;28;20490;-76
2021/10/12 12:18:45;;;;;;;3.90;1.20;;;;;;;;;;5004289;28;20527;-76
2021/10/12 12:21:10;;;;;;;1.50;1.00;;;;;;;;;;5004899;28;20428;-76
2021/10/12 12:23:38;;;;;;;6.93;1.00;;;;;;;;;;5002777;28;20208;-77
2021/10/12 12:26:04;;;;;;;4.50;1.27;;;;;;;;;;5006266;28;20264;-77
2021/10/12 12:28:30;;;;;;;2.00;1.13;;;;;;;;;;5006595;28;20494;-77
2021/10/12 12:30:55;;;;;;;2.80;1.10;;;;;;;;;;5006416;28;20989;-76
2021/10/12 12:33:21;;;;;;;4.43;1.27;;;;;;;;;;5005223;28;20302;-77
2021/10/12 12:35:47;;;;;;;3.10;1.00;;;;;;;;;;5004616;28;20187;-77
2021/10/12 12:38:33;;;;;;;5.47;1.00;;;;;;;;;;5002411;28;20216;-77
2021/10/12 12:40:58;;;;;;;3.30;1.23;;;;;;;;;;5003970;28;20431;-77
2021/10/12 12:43:31;;;;;;;3.00;1.27;;;;;;;;;;5006770;28;20813;-77
2021/10/12 12:46:25;;;;;;;5.03;1.33;;;;;;;;;;5005559;28;20272;-77
2021/10/12 12:49:07;;;;;;;1.50;0.90;;;;;;;;;;4998397;28;20479;-78
2021/10/12 12:51:33;;;;;;;3.03;1.00;;;;;;;;;;5005026;28;21144;-77
2021/10/12 12:53:58;;;;;;;3.33;0.97;;;;;;;;;;5004741;28;21007;-78
2021/10/12 12:56:30;;;;;;;2.47;0.90;;;;;;;;;;5005070;28;20511;-77
2021/10/12 12:59:02;;;;;;;2.40;0.90;;;;;;;;;;5004040;28;20188;-77
2021/10/12 13:01:28;;;;;;;1.73;0.60;;;;;;;;;;5002451;28;20452;-75
2021/10/12 13:03:53;;;;;;;0.83;0.70;;;;;;;;;;5007072;28;20610;-74
2021/10/12 13:06:19;;;;;;;2.80;1.03;;;;;;;;;;4997962;28;20212;-73
2021/10/12 13:08:46;;;;;;;2.40;0.83;;;;;;;;;;4999345;28;20185;-74
2021/10/12 13:11:30;;;;;;;1.63;0.90;;;;;;;;;;5004078;28;20439;-74
2021/10/12 13:13:55;;;;;;;2.30;1.00;;;;;;;;;;5004442;28;20475;-75
2021/10/12 13:16:21;;;;;;;2.63;0.97;;;;;;;;;;5004215;28;20502;-75
2021/10/12 13:18:46;;;;;;;2.20;1.03;;;;;;;;;;5003473;28;20235;-75
2021/10/12 13:21:11;;;;;;;2.20;0.97;;;;;;;;;;5000359;28;20169;-76
2021/10/12 13:23:36;;;;;;;0.70;0.60;;;;;;;;;;5004304;28;20200;-75
2021/10/12 13:26:01;;;;;;;1.53;0.60;;;;;;;;;;5004373;28;20256;-75
2021/10/12 13:28:27;;;;;;;1.60;0.67;;;;;;;;;;4992644;28;20196;-75
2021/10/12 13:30:52;;;;;;;2.13;0.60;;;;;;;;;;4998311;28;20178;-76
2021/10/12 13:33:17;;;;;;;1.63;1.00;;;;;;;;;;4997129;28;20198;-76
2021/10/12 13:35:42;;;;;;;1.67;0.70;;;;;;;;;;5001301;28;20193;-77
2021/10/12 13:38:08;;;;;;;2.30;0.77;;;;;;;;;;5000521;28;20201;-74
2021/10/12 13:40:33;;;;;;;2.10;0.90;;;;;;;;;;4997417;28;20186;-73
2021/10/12 13:42:58;;;;;;;1.97;0.87;;;;;;;;;;5000615;28;20200;-75
2021/10/12 13:45:24;;;;;;;1.13;1.00;;;;;;;;;;5002109;28;20677;-74
2021/10/12 13:47:49;;;;;;;2.10;0.87;;;;;;;;;;4996690;28;21599;-75
2021/10/12 13:50:15;;;;;;;1.60;0.80;;;;;;;;;;4997120;28;20186;-75
2021/10/12 13:52:40;;;;;;;2.30;0.80;;;;;;;;;;5001052;28;20288;-76
2021/10/12 13:55:06;;;;;;;1.90;0.80;;;;;;;;;;5002896;28;20742;-77
2021/10/12 13:57:32;;;;;;;1.80;0.97;;;;;;;;;;5003281;28;20195;-76
2021/10/12 13:59:58;;;;;;;4.50;0.80;;;;;;;;;;5001184;28;20594;-76
2021/10/12 14:02:23;;;;;;;2.43;0.80;;;;;;;;;;5000950;28;20521;-75
2021/10/12 14:04:49;;;;;;;1.80;0.90;;;;;;;;;;5000585;28;20184;-75
2021/10/12 14:07:15;;;;;;;1.33;0.70;;;;;;;;;;5003372;28;20665;-76
2021/10/12 14:09:45;;;;;;;1.70;0.80;;;;;;;;;;5001987;28;20443;-77
2021/10/12 14:12:10;;;;;;;6.33;1.10;;;;;;;;;;4998854;28;20192;-77
2021/10/12 14:14:35;;;;;;;2.50;0.90;;;;;;;;;;5003094;28;20463;-76
2021/10/12 14:17:00;;;;;;;3.53;1.13;;;;;;;;;;5001650;28;20295;-76
2021/10/12 14:19:26;;;;;;;4.77;0.97;;;;;;;;;;5002355;28;20193;-77
2021/10/12 14:21:51;;;;;;;2.63;1.03;;;;;;;;;;5001472;28;20177;-78
2021/10/12 14:24:16;;;;;;;5.43;0.80;;;;;;;;;;5003040;28;20677;-78
2021/10/12 14:26:41;;;;;;;4.10;1.03;;;;;;;;;;5004015;28;20727;-77
2021/10/12 14:29:07;;;;;;;2.30;0.80;;;;;;;;;;5003975;28;20623;-77
2021/10/12 14:31:32;;;;;;;5.60;1.30;;;;;;;;;;5004403;28;20204;-77
2021/10/12 14:33:58;;;;;;;1.80;0.80;;;;;;;;;;5002257;28;20197;-77
2021/10/12 14:36:23;;;;;;;3.57;1.37;;;;;;;;;;5000973;28;20181;-76
2021/10/12 14:38:48;;;;;;;3.07;0.80;;;;;;;;;;5005057;28;20216;-76
2021/10/12 14:41:14;;;;;;;5.20;0.90;;;;;;;;;;5000151;28;20650;-76
2021/10/12 14:43:40;;;;;;;2.90;0.90;;;;;;;;;;5004432;28;20969;-76